Аэропорт
Шуанлю (ZUUU)

 ZUUU / CTU

China
CN-51
Чэнду
 30.57850, 103.94700  / 1625 ft

 ZUUU 201600Z VRB02MPS 9999 -RA SCT033 09/04 Q1032 NOSIG
 TAF ZUUU 200805Z 2012/2112 02003MPS 5000 BR SCT040 TX14/2107Z TN06/2022Z

2020 © VATRUS division (Privacy Policy)